Latest Weather Observations for Essendon Airport

IDV60901

Issued at 9:41 pm EST Tuesday 21 April 2015 (issued every 10 minutes, with the page automatically refreshed every 10 minutes)

About weather observations | Map of Melbourne area stations | Latest observations for Melbourne area | Other Formats
Station Details ID: 086038 Name: ESSENDON AIRPORT Lat: -37.73 Lon: 144.91 Height: 78.4 m
Data from the previous 72 hours. | See also: Recent months at Essendon Airport
Date/Time
EST
Tmp

°C
App
Tmp
°C
Dew
Point
°C
Rel
Hum
%
Delta-T

°C
Wind Press
QNH
hPa
Press
MSL
hPa
Rain
since
9 am
mm
Dir
 
Spd
km/h
Gust
km/h
Spd
kts
Gust
kts
21/09:30pm 11.9 7.6 6.8 71 2.4 SSE 19 24 10 13 1029.3 1029.2 -
21/09:00pm 12.4 7.9 6.9 69 2.6 SSE 20 28 11 15 1029.3 1029.2 0.0
21/08:30pm 12.8 8.4 6.6 66 3.0 SSE 19 24 10 13 1029.3 1029.2 -
21/08:00pm 13.3 9.3 6.6 64 3.2 SSE 17 20 9 11 1029.2 1029.1 -
21/07:30pm 13.3 10.2 7.3 67 2.9 SSE 13 17 7 9 1029.7 1029.6 -
21/07:00pm 13.9 10.0 8.5 70 2.7 SSE 19 26 10 14 1029.7 1029.6 -
21/06:30pm 14.2 9.8 8.8 70 2.7 S 22 32 12 17 1029.4 1029.3 -
21/06:00pm 14.4 9.9 8.6 68 2.9 S 22 30 12 16 1029.1 1029.0 -
21/05:30pm 14.9 9.6 8.6 66 3.2 S 26 35 14 19 1029.0 1028.9 -
21/05:00pm 15.5 9.7 7.8 60 3.8 S 28 35 15 19 1029.0 1028.9 -
21/04:30pm 16.1 10.4 6.5 53 4.7 S 26 39 14 21 1029.1 1029.0 -
21/04:00pm 16.5 10.5 7.2 54 4.6 S 28 39 15 21 1029.3 1029.2 -
21/03:30pm 16.7 10.8 7.4 54 4.7 S 28 37 15 20 1029.3 1029.2 -
21/03:00pm 17.2 11.1 8.4 56 4.5 S 30 43 16 23 1029.4 1029.3 -
21/02:30pm 16.9 10.2 7.5 54 4.7 S 32 39 17 21 1029.4 1029.3 -
21/02:00pm 16.7 13.2 7.1 53 4.8 N 15 26 8 14 1029.6 - 0.0
21/01:30pm 16.9 10.6 7.5 54 4.7 S 30 39 16 21 1030.2 - 0.0
21/01:00pm 16.5 10.8 8.5 59 4.1 S 28 39 15 21 1030.3 1030.2 0.0
21/12:30pm 15.5 9.7 8.0 61 3.8 S 28 35 15 19 1030.8 1030.7 0.0
21/12:00pm 15.7 10.8 8.4 62 3.7 S 24 35 13 19 1031.3 1031.2 0.0
21/11:30am 14.7 9.7 8.0 64 3.4 S 24 35 13 19 1031.9 1031.8 0.0
21/11:00am 14.7 9.6 7.7 63 3.5 S 24 33 13 18 1031.9 1031.8 0.0
21/10:30am 14.7 10.4 8.0 64 3.4 S 20 26 11 14 1032.2 1032.1 0.0
21/10:00am 13.5 10.9 7.7 68 2.8 S 11 17 6 9 1032.5 1032.4 0.0
21/09:30am 12.2 9.6 7.7 74 2.2 S 11 15 6 8 1032.9 1032.8 0.0
21/09:00am 11.0 7.7 6.6 74 2.1 SW 13 17 7 9 1033.2 1033.2 0.0
21/08:30am 10.3 7.1 6.8 79 1.7 SW 13 15 7 8 1033.3 1033.3 0.0
21/08:00am 9.5 6.7 6.8 83 1.3 SW 11 13 6 7 1033.3 1033.3 0.0
21/07:30am 8.6 5.8 6.9 89 0.8 SW 11 13 6 7 1033.2 1033.2 0.0
21/07:00am 7.1 4.0 5.7 91 0.6 SW 11 13 6 7 1033.2 1033.2 0.0
21/06:30am 7.2 4.6 6.0 92 0.5 W 9 11 5 6 1033.1 1033.0 0.0
21/06:00am 6.6 3.9 5.6 93 0.4 WNW 9 11 5 6 1033.0 1032.9 0.0
21/05:30am 5.6 2.3 4.6 93 0.4 WNW 11 13 6 7 1032.8 1032.7 0.0
21/05:00am 5.7 2.0 4.5 92 0.5 W 13 13 7 7 1032.5 1032.4 0.0
21/04:30am 5.6 2.2 4.1 90 0.6 WNW 11 13 6 7 1032.6 1032.5 0.0
21/04:00am 6.5 3.2 4.7 88 0.8 W 11 13 6 7 1032.6 1032.5 0.0
21/03:30am 5.9 2.8 3.6 85 1.0 WSW 9 11 5 6 1032.8 1032.7 0.0
21/03:00am 6.8 4.4 4.3 84 1.1 WSW 6 7 3 4 1033.2 1033.2 0.0
21/02:30am 7.0 4.6 4.1 82 1.3 S 6 7 3 4 1033.6 1033.6 0.0
21/02:00am 7.2 4.2 4.2 81 1.3 SSW 9 11 5 6 1033.8 1033.8 0.0
21/01:30am 7.4 4.9 4.0 79 1.5 SSE 6 7 3 4 1034.0 1034.0 0.0
21/01:00am 7.9 5.8 4.1 77 1.6 SE 4 9 2 5 1034.3 1034.3 0.0
21/12:30am 7.2 6.0 4.5 83 1.2 CALM 0 0 0 0 1034.4 1034.4 0.0
21/12:00am 8.1 5.1 4.3 77 1.6 SE 9 11 5 6 1034.6 1034.6 0.0
 
Date/Time
EST
Tmp

°C
App
Tmp
°C
Dew
Point
°C
Rel
Hum
%
Delta-T

°C
Wind Press
QNH
hPa
Press
MSL
hPa
Rain
since
9 am
mm
Dir
 
Spd
km/h
Gust
km/h
Spd
kts
Gust
kts
20/11:30pm 8.2 4.9 4.6 78 1.6 SSE 11 13 6 7 1034.7 1034.7 0.0
20/11:00pm 8.6 5.4 5.0 78 1.6 SE 11 15 6 8 1035.0 1035.0 0.0
20/10:30pm 8.9 5.3 4.9 76 1.8 SE 13 17 7 9 1035.2 1035.2 0.0
20/10:00pm 9.4 5.8 5.2 75 1.9 SE 13 17 7 9 1035.3 1035.3 0.0
20/09:30pm 10.0 5.7 5.4 73 2.1 SE 17 20 9 11 1035.1 1035.1 0.0
20/09:00pm 10.3 5.6 5.1 70 2.3 SE 19 24 10 13 1035.1 1035.1 0.0
20/08:30pm 11.0 6.1 5.1 67 2.7 SE 20 28 11 15 1035.0 1035.0 0.0
20/08:00pm 10.8 6.4 4.9 67 2.7 SE 17 24 9 13 1035.0 1035.0 0.0
20/07:30pm 11.5 6.2 4.9 64 3.0 SSE 22 33 12 18 1034.8 1034.8 0.0
20/07:00pm 11.6 6.8 4.6 62 3.2 SSE 19 30 10 16 1034.8 1034.8 0.0
20/06:30pm 12.3 6.5 4.3 58 3.6 SSE 24 33 13 18 1034.6 1034.6 0.0
20/06:00pm 12.5 7.3 3.7 55 3.9 SSE 20 30 11 16 1034.4 1034.4 0.0
20/05:30pm 13.1 6.6 4.5 56 4.0 S 28 35 15 19 1034.2 1034.2 0.0
20/05:00pm 13.8 6.3 3.3 49 4.7 S 32 41 17 22 1034.0 1034.0 0.0
20/04:30pm 14.0 7.0 4.0 51 4.6 S 30 43 16 23 1034.0 1034.0 0.0
20/04:00pm 14.5 7.1 4.2 50 4.7 S 32 43 17 23 1034.0 1034.0 0.0
20/03:30pm 14.3 7.4 4.6 52 4.5 S 30 43 16 23 1034.1 1034.1 0.0
20/03:00pm 15.1 7.8 5.3 52 4.6 S 33 46 18 25 1033.9 1033.9 0.0
20/02:30pm 14.9 8.5 5.1 52 4.6 S 28 39 15 21 1034.0 1034.0 0.0
20/02:00pm 14.9 7.6 4.3 49 4.9 S 32 43 17 23 1034.2 1034.2 0.0
20/01:30pm 15.0 7.7 4.4 49 4.9 S 32 43 17 23 1034.4 1034.4 0.0
20/01:00pm 14.8 8.4 5.1 52 4.5 S 28 39 15 21 1034.5 1034.5 0.0
20/12:30pm 14.3 8.6 4.9 53 4.4 SSE 24 39 13 21 1035.0 1035.0 0.0
20/12:00pm 13.4 7.4 5.3 58 3.8 SSE 26 33 14 18 1035.5 1035.5 0.0
20/11:30am 13.6 7.5 4.7 55 4.1 S 26 33 14 18 1036.1 1036.1 0.0
20/11:00am 14.1 8.6 5.7 57 3.9 S 24 32 13 17 1036.4 1036.4 0.0
20/10:30am 14.5 9.0 5.8 56 4.2 SSE 24 32 13 17 1036.6 1036.6 0.0
20/10:00am 13.3 7.7 5.2 58 3.7 SSE 24 32 13 17 1036.7 1036.7 0.0
20/09:30am 13.2 8.5 5.9 61 3.5 SSE 20 30 11 16 1036.8 1036.8 0.0
20/09:00am 11.9 9.6 5.8 66 2.8 S 7 11 4 6 1036.8 1036.8 3.6
20/08:30am 10.5 8.3 5.3 70 2.4 E 6 7 3 4 1036.9 1036.9 3.6
20/08:00am 7.9 5.5 4.3 78 1.6 ENE 6 7 3 4 1036.7 1036.7 3.6
20/07:30am 7.2 5.4 3.6 78 1.5 ESE 2 6 1 3 1036.3 1036.3 3.6
20/07:00am 7.2 4.1 3.6 78 1.5 E 9 15 5 8 1036.2 1036.2 3.6
20/06:30am 7.1 4.5 3.3 77 1.6 SE 6 11 3 6 1035.8 1035.8 3.6
20/06:00am 7.2 4.4 3.1 75 1.7 E 7 9 4 5 1035.6 1035.6 3.6
20/05:30am 8.9 5.3 3.1 67 2.5 SSE 11 15 6 8 1035.3 1035.3 3.6
20/05:00am 9.5 5.5 3.0 64 2.8 SSE 13 17 7 9 1035.1 1035.1 3.6
20/04:30am 8.6 4.7 3.2 69 2.3 SE 13 19 7 10 1034.9 1034.9 3.6
20/04:00am 10.0 5.4 3.5 64 2.8 SSE 17 24 9 13 1034.6 1034.6 3.6
20/03:30am 9.8 5.6 3.8 66 2.6 SSE 15 20 8 11 1034.4 1034.4 3.6
20/03:00am 9.9 5.8 4.1 67 2.5 SSE 15 20 8 11 1034.5 1034.5 3.6
20/02:30am 10.1 5.7 4.9 70 2.4 SSE 17 24 9 13 1034.6 1034.6 3.6
20/02:00am 9.5 5.7 4.1 69 2.4 SSE 13 17 7 9 1034.6 1034.6 3.6
20/01:30am 11.3 6.4 5.0 65 2.9 SSE 20 32 11 17 1034.6 1034.6 3.6
20/01:00am 10.3 5.8 4.0 65 2.8 S 17 20 9 11 1034.6 1034.6 3.6
20/12:30am 10.4 5.7 3.0 60 3.2 S 17 24 9 13 1034.8 1034.8 3.6
20/12:00am 11.0 5.7 2.8 57 3.5 SSE 20 30 11 16 1034.8 1034.8 3.6
 
Date/Time
EST
Tmp

°C
App
Tmp
°C
Dew
Point
°C
Rel
Hum
%
Delta-T

°C
Wind Press
QNH
hPa
Press
MSL
hPa
Rain
since
9 am
mm
Dir
 
Spd
km/h
Gust
km/h
Spd
kts
Gust
kts
19/11:30pm 11.0 5.4 3.5 60 3.3 S 22 32 12 17 1034.8 1034.8 3.6
19/11:00pm 11.0 5.7 3.1 58 3.4 SSE 20 28 11 15 1034.7 1034.7 3.6
19/10:30pm 11.2 4.2 2.0 53 3.9 SSE 28 37 15 20 1034.6 1034.6 3.6
19/10:00pm 11.0 4.3 1.5 52 4.0 SSE 26 35 14 19 1034.6 1034.6 3.6
19/09:30pm 11.1 5.5 3.2 58 3.5 SSE 22 33 12 18 1034.3 1034.3 3.6
19/09:00pm 10.8 5.4 2.4 56 3.6 S 20 30 11 16 1034.1 1034.1 3.6
19/08:30pm 10.7 4.8 1.8 54 3.8 S 22 32 12 17 1033.7 1033.7 3.6
19/08:00pm 11.3 5.0 1.8 52 4.0 S 24 37 13 20 1033.4 1033.4 3.6
19/07:30pm 11.6 5.7 4.1 60 3.4 S 24 35 13 19 1033.0 1032.9 3.6
19/07:00pm 11.2 6.4 4.9 65 2.8 S 19 30 10 16 1032.6 1032.5 3.6
19/06:30pm 11.2 5.2 5.1 66 2.8 S 26 39 14 21 1032.2 1032.1 3.6
19/06:00pm 10.7 5.1 5.3 69 2.5 SSW 24 33 13 18 1031.7 1031.6 3.6
19/05:30pm 10.4 7.1 6.5 77 1.8 S 13 20 7 11 1031.4 1031.3 3.6
19/05:00pm 10.1 4.6 5.9 75 1.9 S 24 43 13 23 1031.1 1031.0 3.6
19/04:53pm 10.1 3.7 7.0 81 1.5 SSE 30 48 16 26 1031.1 1031.0 3.6
19/04:50pm 9.8 3.8 7.1 83 1.3 SSE 28 48 15 26 1031.0 1030.9 3.4
19/04:45pm 9.9 5.4 6.8 81 1.5 SSE 20 48 11 26 1030.9 1030.8 3.4
19/04:30pm 9.9 6.5 7.5 85 1.1 SSW 15 20 8 11 1030.8 1030.7 3.2
19/04:10pm 9.3 1.8 6.4 82 1.3 SSW 35 57 19 31 1030.8 1030.7 2.6
19/04:07pm 9.8 3.2 6.2 78 1.7 SSW 30 57 16 31 1030.7 1030.6 1.8
19/04:05pm 9.9 3.6 5.9 76 1.8 S 28 57 15 31 1030.6 1030.5 1.8
19/04:00pm 11.7 6.8 5.3 65 2.9 S 20 30 11 16 1030.2 1030.1 1.6
19/03:30pm 12.1 7.8 6.8 70 2.5 S 19 24 10 13 1030.1 1030.0 1.6
19/03:00pm 10.1 3.8 5.7 74 2.0 S 28 48 15 26 1030.2 1030.1 1.6
19/02:49pm 11.0 2.6 5.5 69 2.5 S 39 57 21 31 1030.1 1030.0 1.4
19/02:30pm 12.1 4.9 5.0 62 3.3 S 32 48 17 26 1029.5 1029.4 1.4
19/02:00pm 12.4 4.4 5.6 63 3.2 S 37 48 20 26 1029.0 1028.9 1.4
19/01:30pm 13.9 6.9 5.8 58 3.9 S 32 43 17 23 1028.6 1028.5 1.4
19/01:00pm 12.8 5.7 5.7 62 3.3 S 32 43 17 23 1028.3 1028.3 1.4
19/12:38pm 12.1 6.8 9.7 85 1.2 S 28 41 15 22 1028.3 1028.3 1.4
19/12:30pm 10.4 4.0 8.7 89 0.8 S 32 46 17 25 1028.3 1028.3 1.4
19/12:26pm 10.0 2.6 8.4 90 0.8 S 37 56 20 30 1028.3 1028.3 1.4
19/12:20pm 10.0 2.2 8.1 88 0.9 S 39 56 21 30 1028.2 1028.2 1.0
19/12:15pm 13.3 6.1 5.7 60 3.6 S 33 52 18 28 1027.8 1027.8 0.0
19/12:00pm 13.5 6.3 4.9 56 4.0 S 32 46 17 25 1027.9 1027.9 0.0
19/11:30am 13.0 7.0 7.2 68 2.8 S 28 43 15 23 1027.8 1027.8 0.0
19/11:00am 12.7 6.8 7.6 71 2.5 SW 28 39 15 21 1027.8 1027.8 0.0
19/10:30am 12.7 6.3 8.4 75 2.1 SW 32 41 17 22 1027.3 1027.3 0.0
19/10:00am 10.7 5.3 8.1 84 1.3 WSW 26 32 14 17 1027.1 1027.1 0.0
19/09:30am 10.0 3.8 7.9 87 1.0 WSW 30 39 16 21 1026.7 1026.7 0.0
19/09:00am 8.7 2.4 7.3 91 0.7 WSW 30 39 16 21 1026.4 1026.4 6.8
19/08:30am 9.1 3.6 7.4 89 0.8 SW 26 37 14 20 1025.7 1025.7 6.8
19/08:00am 8.8 3.6 7.4 91 0.7 WSW 24 32 13 17 1025.1 1025.1 6.6
19/07:30am 8.1 3.6 7.0 93 0.5 WSW 20 28 11 15 1024.5 1024.5 6.6
19/07:00am 8.2 2.4 7.8 97 0.2 WSW 28 43 15 23 1023.7 1023.7 6.4
19/06:30am 8.5 2.5 7.1 91 0.7 WSW 28 39 15 21 1023.2 1023.2 5.2
19/06:00am 8.4 3.4 6.4 87 0.9 WSW 22 30 12 16 1022.3 1022.2 5.2
19/05:30am 8.3 3.7 6.3 87 0.9 WSW 20 30 11 16 1021.7 1021.6 5.2
19/05:00am 8.6 3.5 6.2 85 1.1 W 22 30 12 16 1021.2 1021.1 5.2
19/04:30am 8.4 4.3 6.4 87 0.9 W 17 24 9 13 1020.7 1020.6 5.0
19/04:00am 8.6 4.6 6.6 87 0.9 W 17 20 9 11 1020.3 1020.2 5.0
19/03:30am 8.8 4.3 6.8 87 0.9 W 20 28 11 15 1020.0 1019.9 5.0
19/03:00am 9.0 4.7 7.1 88 0.9 W 19 22 10 12 1019.8 1019.7 5.0
19/02:30am 9.2 5.0 7.3 88 0.9 W 19 24 10 13 1019.5 1019.4 5.0
19/02:00am 9.5 5.2 7.8 89 0.8 WSW 20 26 11 14 1019.3 1019.2 5.0
19/01:30am 9.8 5.2 8.2 90 0.8 W 22 28 12 15 1019.1 1019.0 5.0
19/01:00am 10.0 6.9 8.8 92 0.6 W 15 20 8 11 1019.0 1018.9 5.0
19/12:30am 10.3 7.3 9.2 93 0.5 W 15 20 8 11 1018.7 1018.6 5.0
19/12:00am 10.5 8.0 9.6 94 0.5 W 13 19 7 10 1018.3 1018.2 5.0
 
Date/Time
EST
Tmp

°C
App
Tmp
°C
Dew
Point
°C
Rel
Hum
%
Delta-T

°C
Wind Press
QNH
hPa
Press
MSL
hPa
Rain
since
9 am
mm
Dir
 
Spd
km/h
Gust
km/h
Spd
kts
Gust
kts
18/11:30pm 10.3 8.2 9.7 96 0.3 NW 11 15 6 8 1018.2 1018.1 5.0
18/11:00pm 10.5 8.5 10.3 99 0.1 NW 11 13 6 7 1018.4 1018.3 5.0
18/10:30pm 10.5 8.5 10.3 99 0.1 NW 11 13 6 7 1018.4 1018.3 4.4
18/10:00pm 10.7 9.2 10.5 99 0.1 NNW 9 11 5 6 1017.9 1017.8 3.2

Latest Capital City Observations: Canberra | Sydney | Melbourne | Brisbane | Adelaide | Perth | Hobart | Darwin

Other Formats:

Comma delimited format used in spreadsheet applications
http://www.bom.gov.au/fwo/IDV60901/IDV60901.95866.axf

JavaScript Object Notation format (JSON) in row-major order
http://www.bom.gov.au/fwo/IDV60901/IDV60901.95866.json